sensor_id;sensor_type;location;lat;lon;timestamp;temperature;humidity
25951;DHT22;13748;52.240;6.002;2023-07-24T00:00:29;19.50;99.90
25951;DHT22;13748;52.240;6.002;2023-07-24T00:02:55;19.50;99.90
25951;DHT22;13748;52.240;6.002;2023-07-24T00:05:23;19.50;99.90
25951;DHT22;13748;52.240;6.002;2023-07-24T00:07:50;19.50;99.90
25951;DHT22;13748;52.240;6.002;2023-07-24T00:10:17;19.50;99.90
25951;DHT22;13748;52.240;6.002;2023-07-24T00:12:43;19.50;99.90
25951;DHT22;13748;52.240;6.002;2023-07-24T00:15:10;19.50;99.90
25951;DHT22;13748;52.240;6.002;2023-07-24T00:17:37;19.50;99.90
25951;DHT22;13748;52.240;6.002;2023-07-24T00:20:05;19.50;99.90
25951;DHT22;13748;52.240;6.002;2023-07-24T00:22:31;19.50;99.90
25951;DHT22;13748;52.240;6.002;2023-07-24T00:24:58;19.50;99.90
25951;DHT22;13748;52.240;6.002;2023-07-24T00:27:25;19.50;99.90
25951;DHT22;13748;52.240;6.002;2023-07-24T00:29:52;19.50;99.90
25951;DHT22;13748;52.240;6.002;2023-07-24T00:32:18;19.40;99.90
25951;DHT22;13748;52.240;6.002;2023-07-24T00:34:45;19.40;99.90
25951;DHT22;13748;52.240;6.002;2023-07-24T00:37:12;19.30;99.90
25951;DHT22;13748;52.240;6.002;2023-07-24T00:39:39;19.40;99.90
25951;DHT22;13748;52.240;6.002;2023-07-24T00:42:06;19.30;99.90
25951;DHT22;13748;52.240;6.002;2023-07-24T00:44:33;19.40;99.90
25951;DHT22;13748;52.240;6.002;2023-07-24T00:47:00;19.30;99.90
25951;DHT22;13748;52.240;6.002;2023-07-24T00:49:27;19.30;99.90
25951;DHT22;13748;52.240;6.002;2023-07-24T00:51:53;19.30;99.90
25951;DHT22;13748;52.240;6.002;2023-07-24T00:54:21;19.20;99.90
25951;DHT22;13748;52.240;6.002;2023-07-24T00:56:48;19.20;99.90
25951;DHT22;13748;52.240;6.002;2023-07-24T00:59:15;19.10;99.90
25951;DHT22;13748;52.240;6.002;2023-07-24T01:01:42;19.10;99.90
25951;DHT22;13748;52.240;6.002;2023-07-24T01:04:10;19.00;99.90
25951;DHT22;13748;52.240;6.002;2023-07-24T01:06:37;19.10;99.90
25951;DHT22;13748;52.240;6.002;2023-07-24T01:09:04;19.10;99.90
25951;DHT22;13748;52.240;6.002;2023-07-24T01:11:43;19.10;99.90
25951;DHT22;13748;52.240;6.002;2023-07-24T01:14:24;19.20;99.90
25951;DHT22;13748;52.240;6.002;2023-07-24T01:16:55;19.20;99.90
25951;DHT22;13748;52.240;6.002;2023-07-24T01:25:18;19.40;99.90
25951;DHT22;13748;52.240;6.002;2023-07-24T01:27:49;19.40;99.90
25951;DHT22;13748;52.240;6.002;2023-07-24T01:30:18;19.30;99.90
25951;DHT22;13748;52.240;6.002;2023-07-24T01:32:45;19.20;99.90
25951;DHT22;13748;52.240;6.002;2023-07-24T01:35:12;19.20;99.90
25951;DHT22;13748;52.240;6.002;2023-07-24T01:37:40;19.20;99.90
25951;DHT22;13748;52.240;6.002;2023-07-24T01:40:09;19.20;99.90
25951;DHT22;13748;52.240;6.002;2023-07-24T01:42:36;19.10;99.90
25951;DHT22;13748;52.240;6.002;2023-07-24T01:45:04;19.00;99.90
25951;DHT22;13748;52.240;6.002;2023-07-24T01:47:31;19.00;99.90
25951;DHT22;13748;52.240;6.002;2023-07-24T01:49:58;19.10;99.90
25951;DHT22;13748;52.240;6.002;2023-07-24T01:52:25;19.00;99.90
25951;DHT22;13748;52.240;6.002;2023-07-24T01:54:52;19.00;99.90
25951;DHT22;13748;52.240;6.002;2023-07-24T01:57:19;19.00;99.90
25951;DHT22;13748;52.240;6.002;2023-07-24T01:59:46;19.10;99.90
25951;DHT22;13748;52.240;6.002;2023-07-24T02:02:12;19.10;99.90
25951;DHT22;13748;52.240;6.002;2023-07-24T02:04:39;19.10;99.90
25951;DHT22;13748;52.240;6.002;2023-07-24T02:07:06;19.10;99.90
25951;DHT22;13748;52.240;6.002;2023-07-24T02:09:33;19.10;99.90
25951;DHT22;13748;52.240;6.002;2023-07-24T02:12:00;19.10;99.90
25951;DHT22;13748;52.240;6.002;2023-07-24T02:14:28;19.10;99.90
25951;DHT22;13748;52.240;6.002;2023-07-24T02:16:55;19.10;99.90
25951;DHT22;13748;52.240;6.002;2023-07-24T02:19:22;19.10;99.90
25951;DHT22;13748;52.240;6.002;2023-07-24T02:21:48;19.10;99.90
25951;DHT22;13748;52.240;6.002;2023-07-24T02:24:15;19.00;99.90
25951;DHT22;13748;52.240;6.002;2023-07-24T02:26:42;19.00;99.90
25951;DHT22;13748;52.240;6.002;2023-07-24T02:29:09;18.90;99.90
25951;DHT22;13748;52.240;6.002;2023-07-24T02:31:35;18.90;99.90
25951;DHT22;13748;52.240;6.002;2023-07-24T02:34:02;18.80;99.90
25951;DHT22;13748;52.240;6.002;2023-07-24T02:36:29;18.80;99.90
25951;DHT22;13748;52.240;6.002;2023-07-24T02:38:56;18.80;99.90
25951;DHT22;13748;52.240;6.002;2023-07-24T02:41:23;18.80;99.90
25951;DHT22;13748;52.240;6.002;2023-07-24T02:43:50;18.80;99.90
25951;DHT22;13748;52.240;6.002;2023-07-24T02:46:17;18.80;99.90
25951;DHT22;13748;52.240;6.002;2023-07-24T02:48:43;18.80;99.90
25951;DHT22;13748;52.240;6.002;2023-07-24T02:51:10;18.80;99.90
25951;DHT22;13748;52.240;6.002;2023-07-24T02:53:37;18.80;99.90
25951;DHT22;13748;52.240;6.002;2023-07-24T02:56:04;18.90;99.90
25951;DHT22;13748;52.240;6.002;2023-07-24T02:58:30;18.80;99.90
25951;DHT22;13748;52.240;6.002;2023-07-24T03:01:07;18.80;99.90
25951;DHT22;13748;52.240;6.002;2023-07-24T03:03:35;18.80;99.90
25951;DHT22;13748;52.240;6.002;2023-07-24T03:06:02;18.80;99.90
25951;DHT22;13748;52.240;6.002;2023-07-24T03:08:28;18.80;99.90
25951;DHT22;13748;52.240;6.002;2023-07-24T03:10:55;18.80;99.90
25951;DHT22;13748;52.240;6.002;2023-07-24T03:13:22;18.70;99.90
25951;DHT22;13748;52.240;6.002;2023-07-24T03:15:56;18.80;99.90
25951;DHT22;13748;52.240;6.002;2023-07-24T03:18:24;18.80;99.90
25951;DHT22;13748;52.240;6.002;2023-07-24T03:20:51;18.80;99.90
25951;DHT22;13748;52.240;6.002;2023-07-24T03:23:18;18.70;99.90
25951;DHT22;13748;52.240;6.002;2023-07-24T03:25:45;18.80;99.90
25951;DHT22;13748;52.240;6.002;2023-07-24T03:28:12;18.80;99.90
25951;DHT22;13748;52.240;6.002;2023-07-24T03:30:38;18.90;99.90
25951;DHT22;13748;52.240;6.002;2023-07-24T03:33:05;18.90;99.90
25951;DHT22;13748;52.240;6.002;2023-07-24T03:35:33;18.90;99.90
25951;DHT22;13748;52.240;6.002;2023-07-24T03:37:59;18.90;99.90
25951;DHT22;13748;52.240;6.002;2023-07-24T03:40:27;18.90;99.90
25951;DHT22;13748;52.240;6.002;2023-07-24T03:42:53;18.90;99.90
25951;DHT22;13748;52.240;6.002;2023-07-24T03:45:20;18.90;99.90
25951;DHT22;13748;52.240;6.002;2023-07-24T03:47:47;19.00;99.90
25951;DHT22;13748;52.240;6.002;2023-07-24T03:50:14;19.00;99.90
25951;DHT22;13748;52.240;6.002;2023-07-24T03:52:41;19.00;99.90
25951;DHT22;13748;52.240;6.002;2023-07-24T03:55:08;18.90;99.90
25951;DHT22;13748;52.240;6.002;2023-07-24T03:57:35;18.90;99.90
25951;DHT22;13748;52.240;6.002;2023-07-24T04:00:03;18.90;99.90
25951;DHT22;13748;52.240;6.002;2023-07-24T04:02:30;18.90;99.90
25951;DHT22;13748;52.240;6.002;2023-07-24T04:04:57;18.90;99.90
25951;DHT22;13748;52.240;6.002;2023-07-24T04:07:23;18.80;99.90
25951;DHT22;13748;52.240;6.002;2023-07-24T04:09:50;18.90;99.90
25951;DHT22;13748;52.240;6.002;2023-07-24T04:12:17;18.80;99.90
25951;DHT22;13748;52.240;6.002;2023-07-24T04:14:44;18.90;99.90
25951;DHT22;13748;52.240;6.002;2023-07-24T04:17:10;18.80;99.90
25951;DHT22;13748;52.240;6.002;2023-07-24T04:19:37;18.80;99.90
25951;DHT22;13748;52.240;6.002;2023-07-24T04:22:04;18.80;99.90
25951;DHT22;13748;52.240;6.002;2023-07-24T04:24:31;18.80;99.90
25951;DHT22;13748;52.240;6.002;2023-07-24T04:26:58;18.80;99.90
25951;DHT22;13748;52.240;6.002;2023-07-24T04:29:24;18.80;99.90
25951;DHT22;13748;52.240;6.002;2023-07-24T04:31:52;18.80;99.90
25951;DHT22;13748;52.240;6.002;2023-07-24T04:34:19;18.80;99.90
25951;DHT22;13748;52.240;6.002;2023-07-24T04:36:46;18.80;99.90
25951;DHT22;13748;52.240;6.002;2023-07-24T04:39:13;18.70;99.90
25951;DHT22;13748;52.240;6.002;2023-07-24T04:41:39;18.80;99.90
25951;DHT22;13748;52.240;6.002;2023-07-24T04:44:06;18.80;99.90
25951;DHT22;13748;52.240;6.002;2023-07-24T04:46:33;18.80;99.90
25951;DHT22;13748;52.240;6.002;2023-07-24T04:49:00;18.90;99.90
25951;DHT22;13748;52.240;6.002;2023-07-24T04:51:27;18.80;99.90
25951;DHT22;13748;52.240;6.002;2023-07-24T04:53:55;18.70;99.90
25951;DHT22;13748;52.240;6.002;2023-07-24T04:56:22;18.70;99.90
25951;DHT22;13748;52.240;6.002;2023-07-24T04:58:49;18.80;99.90
25951;DHT22;13748;52.240;6.002;2023-07-24T05:01:15;18.70;99.90
25951;DHT22;13748;52.240;6.002;2023-07-24T05:03:42;18.70;99.90
25951;DHT22;13748;52.240;6.002;2023-07-24T05:06:09;18.70;99.90
25951;DHT22;13748;52.240;6.002;2023-07-24T05:08:36;18.80;99.90
25951;DHT22;13748;52.240;6.002;2023-07-24T05:11:03;18.80;99.90
25951;DHT22;13748;52.240;6.002;2023-07-24T05:13:29;18.80;99.90
25951;DHT22;13748;52.240;6.002;2023-07-24T05:15:56;18.80;99.90
25951;DHT22;13748;52.240;6.002;2023-07-24T05:18:23;18.80;99.90
25951;DHT22;13748;52.240;6.002;2023-07-24T05:20:50;18.80;99.90
25951;DHT22;13748;52.240;6.002;2023-07-24T05:23:18;18.80;99.90
25951;DHT22;13748;52.240;6.002;2023-07-24T05:25:46;18.90;99.90
25951;DHT22;13748;52.240;6.002;2023-07-24T05:28:13;18.80;99.90
25951;DHT22;13748;52.240;6.002;2023-07-24T05:30:39;18.80;99.90
25951;DHT22;13748;52.240;6.002;2023-07-24T05:33:06;18.90;99.90
25951;DHT22;13748;52.240;6.002;2023-07-24T05:35:33;18.80;99.90
25951;DHT22;13748;52.240;6.002;2023-07-24T05:38:00;18.70;99.90
25951;DHT22;13748;52.240;6.002;2023-07-24T05:40:28;18.70;99.90
25951;DHT22;13748;52.240;6.002;2023-07-24T05:42:55;18.80;99.90
25951;DHT22;13748;52.240;6.002;2023-07-24T05:45:21;18.80;99.90
25951;DHT22;13748;52.240;6.002;2023-07-24T05:47:48;18.80;99.90
25951;DHT22;13748;52.240;6.002;2023-07-24T05:50:15;18.80;99.90
25951;DHT22;13748;52.240;6.002;2023-07-24T05:52:42;18.90;99.90
25951;DHT22;13748;52.240;6.002;2023-07-24T05:55:09;19.30;99.90
25951;DHT22;13748;52.240;6.002;2023-07-24T05:57:36;19.50;99.90
25951;DHT22;13748;52.240;6.002;2023-07-24T06:00:05;19.60;99.90
25951;DHT22;13748;52.240;6.002;2023-07-24T06:02:32;19.70;99.90
25951;DHT22;13748;52.240;6.002;2023-07-24T06:04:58;19.80;99.90
25951;DHT22;13748;52.240;6.002;2023-07-24T06:07:25;19.80;99.90
25951;DHT22;13748;52.240;6.002;2023-07-24T06:09:52;19.80;99.90
25951;DHT22;13748;52.240;6.002;2023-07-24T06:12:19;19.80;99.90
25951;DHT22;13748;52.240;6.002;2023-07-24T06:14:46;19.80;99.90
25951;DHT22;13748;52.240;6.002;2023-07-24T06:17:12;19.70;99.90
25951;DHT22;13748;52.240;6.002;2023-07-24T06:19:39;19.60;99.90
25951;DHT22;13748;52.240;6.002;2023-07-24T06:22:07;19.70;99.90
25951;DHT22;13748;52.240;6.002;2023-07-24T06:24:33;19.60;99.90
25951;DHT22;13748;52.240;6.002;2023-07-24T06:27:00;19.60;99.90
25951;DHT22;13748;52.240;6.002;2023-07-24T06:29:27;19.50;99.90
25951;DHT22;13748;52.240;6.002;2023-07-24T06:31:54;19.50;99.90
25951;DHT22;13748;52.240;6.002;2023-07-24T06:34:21;19.50;99.90
25951;DHT22;13748;52.240;6.002;2023-07-24T06:36:48;19.70;99.90
25951;DHT22;13748;52.240;6.002;2023-07-24T06:39:15;19.80;99.90
25951;DHT22;13748;52.240;6.002;2023-07-24T06:41:42;19.90;99.90
25951;DHT22;13748;52.240;6.002;2023-07-24T06:44:09;20.00;99.90
25951;DHT22;13748;52.240;6.002;2023-07-24T06:46:35;20.10;99.90
25951;DHT22;13748;52.240;6.002;2023-07-24T06:49:02;20.30;99.90
25951;DHT22;13748;52.240;6.002;2023-07-24T06:51:29;20.20;99.90
25951;DHT22;13748;52.240;6.002;2023-07-24T06:53:56;20.40;99.90
25951;DHT22;13748;52.240;6.002;2023-07-24T06:56:23;20.40;99.90
25951;DHT22;13748;52.240;6.002;2023-07-24T06:58:50;20.50;99.90
25951;DHT22;13748;52.240;6.002;2023-07-24T07:01:16;20.70;99.90
25951;DHT22;13748;52.240;6.002;2023-07-24T07:03:43;20.80;99.90
25951;DHT22;13748;52.240;6.002;2023-07-24T07:06:10;21.10;99.90
25951;DHT22;13748;52.240;6.002;2023-07-24T07:08:53;21.50;99.90
25951;DHT22;13748;52.240;6.002;2023-07-24T07:11:20;22.20;99.90
25951;DHT22;13748;52.240;6.002;2023-07-24T07:13:47;22.80;99.90
25951;DHT22;13748;52.240;6.002;2023-07-24T07:16:14;23.40;99.90
25951;DHT22;13748;52.240;6.002;2023-07-24T07:18:43;23.70;99.90
25951;DHT22;13748;52.240;6.002;2023-07-24T07:21:10;23.80;99.90
25951;DHT22;13748;52.240;6.002;2023-07-24T07:23:37;23.90;99.90
25951;DHT22;13748;52.240;6.002;2023-07-24T07:26:04;24.10;99.90
25951;DHT22;13748;52.240;6.002;2023-07-24T07:28:30;23.90;99.90
25951;DHT22;13748;52.240;6.002;2023-07-24T07:30:57;23.70;99.90
25951;DHT22;13748;52.240;6.002;2023-07-24T07:33:24;23.60;99.90
25951;DHT22;13748;52.240;6.002;2023-07-24T07:35:51;23.50;99.90
25951;DHT22;13748;52.240;6.002;2023-07-24T07:38:18;23.40;99.90
25951;DHT22;13748;52.240;6.002;2023-07-24T07:40:45;23.50;99.90
25951;DHT22;13748;52.240;6.002;2023-07-24T07:43:12;23.90;99.90
25951;DHT22;13748;52.240;6.002;2023-07-24T07:45:39;24.20;99.90
25951;DHT22;13748;52.240;6.002;2023-07-24T07:48:06;24.80;99.90
25951;DHT22;13748;52.240;6.002;2023-07-24T07:50:32;25.00;99.90
25951;DHT22;13748;52.240;6.002;2023-07-24T07:52:59;25.40;99.90
25951;DHT22;13748;52.240;6.002;2023-07-24T07:55:26;25.90;99.90
25951;DHT22;13748;52.240;6.002;2023-07-24T07:57:53;26.00;99.90
25951;DHT22;13748;52.240;6.002;2023-07-24T08:00:20;26.10;99.90
25951;DHT22;13748;52.240;6.002;2023-07-24T08:02:47;26.80;99.90
25951;DHT22;13748;52.240;6.002;2023-07-24T08:05:14;26.60;99.90
25951;DHT22;13748;52.240;6.002;2023-07-24T08:07:46;26.30;99.90
25951;DHT22;13748;52.240;6.002;2023-07-24T08:10:13;25.90;99.90
25951;DHT22;13748;52.240;6.002;2023-07-24T08:12:43;25.50;99.90
25951;DHT22;13748;52.240;6.002;2023-07-24T08:15:10;25.00;99.90
25951;DHT22;13748;52.240;6.002;2023-07-24T08:17:37;24.70;99.90
25951;DHT22;13748;52.240;6.002;2023-07-24T08:20:06;24.30;99.90
25951;DHT22;13748;52.240;6.002;2023-07-24T08:22:33;24.30;99.90
25951;DHT22;13748;52.240;6.002;2023-07-24T08:25:00;24.20;99.90
25951;DHT22;13748;52.240;6.002;2023-07-24T08:27:27;24.00;99.90
25951;DHT22;13748;52.240;6.002;2023-07-24T08:29:54;24.00;99.90
25951;DHT22;13748;52.240;6.002;2023-07-24T08:32:20;23.80;99.90
25951;DHT22;13748;52.240;6.002;2023-07-24T08:34:48;23.50;99.90
25951;DHT22;13748;52.240;6.002;2023-07-24T08:37:14;23.30;99.90
25951;DHT22;13748;52.240;6.002;2023-07-24T08:39:41;23.30;99.90
25951;DHT22;13748;52.240;6.002;2023-07-24T08:42:12;23.30;99.90
25951;DHT22;13748;52.240;6.002;2023-07-24T08:44:39;23.30;99.90
25951;DHT22;13748;52.240;6.002;2023-07-24T08:47:10;23.20;99.90
25951;DHT22;13748;52.240;6.002;2023-07-24T08:49:38;23.20;99.90
25951;DHT22;13748;52.240;6.002;2023-07-24T08:52:07;23.10;99.90
25951;DHT22;13748;52.240;6.002;2023-07-24T08:54:40;23.10;99.90
25951;DHT22;13748;52.240;6.002;2023-07-24T08:57:07;22.90;99.90
25951;DHT22;13748;52.240;6.002;2023-07-24T08:59:34;23.10;99.90
25951;DHT22;13748;52.240;6.002;2023-07-24T09:02:01;23.00;99.90
25951;DHT22;13748;52.240;6.002;2023-07-24T09:04:29;23.00;99.90
25951;DHT22;13748;52.240;6.002;2023-07-24T09:06:57;23.50;99.90
25951;DHT22;13748;52.240;6.002;2023-07-24T09:09:29;24.20;99.90
25951;DHT22;13748;52.240;6.002;2023-07-24T09:11:57;24.50;99.90
25951;DHT22;13748;52.240;6.002;2023-07-24T09:14:27;24.50;99.90
25951;DHT22;13748;52.240;6.002;2023-07-24T09:17:08;24.50;99.90
25951;DHT22;13748;52.240;6.002;2023-07-24T09:19:37;24.70;99.90
25951;DHT22;13748;52.240;6.002;2023-07-24T09:22:11;24.90;99.90
25951;DHT22;13748;52.240;6.002;2023-07-24T09:24:57;25.10;99.90
25951;DHT22;13748;52.240;6.002;2023-07-24T09:27:26;25.10;99.90
25951;DHT22;13748;52.240;6.002;2023-07-24T09:29:55;24.90;99.90
25951;DHT22;13748;52.240;6.002;2023-07-24T09:32:26;24.70;99.90
25951;DHT22;13748;52.240;6.002;2023-07-24T09:34:54;24.20;99.90
25951;DHT22;13748;52.240;6.002;2023-07-24T09:37:30;23.90;99.90
25951;DHT22;13748;52.240;6.002;2023-07-24T09:39:57;23.70;99.90
25951;DHT22;13748;52.240;6.002;2023-07-24T09:42:30;23.70;99.90
25951;DHT22;13748;52.240;6.002;2023-07-24T09:44:57;24.00;99.90
25951;DHT22;13748;52.240;6.002;2023-07-24T09:47:25;24.20;99.90
25951;DHT22;13748;52.240;6.002;2023-07-24T09:50:13;24.20;99.90
25951;DHT22;13748;52.240;6.002;2023-07-24T09:52:41;24.30;99.90
25951;DHT22;13748;52.240;6.002;2023-07-24T09:55:21;24.70;99.90
25951;DHT22;13748;52.240;6.002;2023-07-24T09:57:48;25.00;99.90
25951;DHT22;13748;52.240;6.002;2023-07-24T10:00:16;25.10;99.90
25951;DHT22;13748;52.240;6.002;2023-07-24T10:02:44;25.30;99.90
25951;DHT22;13748;52.240;6.002;2023-07-24T10:05:12;25.40;99.90
25951;DHT22;13748;52.240;6.002;2023-07-24T10:07:39;25.30;99.90
25951;DHT22;13748;52.240;6.002;2023-07-24T10:10:06;24.90;99.90
25951;DHT22;13748;52.240;6.002;2023-07-24T10:12:33;24.90;99.90
25951;DHT22;13748;52.240;6.002;2023-07-24T10:15:01;24.90;99.90
25951;DHT22;13748;52.240;6.002;2023-07-24T10:17:40;24.80;99.90
25951;DHT22;13748;52.240;6.002;2023-07-24T10:20:10;24.50;99.90
25951;DHT22;13748;52.240;6.002;2023-07-24T10:22:41;24.40;99.90
25951;DHT22;13748;52.240;6.002;2023-07-24T10:25:09;24.20;99.90
25951;DHT22;13748;52.240;6.002;2023-07-24T10:27:43;24.00;99.90
25951;DHT22;13748;52.240;6.002;2023-07-24T10:30:14;23.80;99.90
25951;DHT22;13748;52.240;6.002;2023-07-24T10:33:17;23.80;99.90
25951;DHT22;13748;52.240;6.002;2023-07-24T10:35:54;23.70;99.90
25951;DHT22;13748;52.240;6.002;2023-07-24T10:38:36;23.60;99.90
25951;DHT22;13748;52.240;6.002;2023-07-24T10:41:07;23.50;99.90
25951;DHT22;13748;52.240;6.002;2023-07-24T10:43:45;23.50;99.90
25951;DHT22;13748;52.240;6.002;2023-07-24T10:46:16;23.70;99.90
25951;DHT22;13748;52.240;6.002;2023-07-24T10:48:44;23.90;99.90
25951;DHT22;13748;52.240;6.002;2023-07-24T10:51:12;23.80;99.90
25951;DHT22;13748;52.240;6.002;2023-07-24T10:53:46;23.70;99.90
25951;DHT22;13748;52.240;6.002;2023-07-24T10:56:15;23.90;99.90
25951;DHT22;13748;52.240;6.002;2023-07-24T10:58:42;24.00;99.90
25951;DHT22;13748;52.240;6.002;2023-07-24T11:01:09;24.00;99.90
25951;DHT22;13748;52.240;6.002;2023-07-24T11:03:40;23.80;99.90
25951;DHT22;13748;52.240;6.002;2023-07-24T11:06:16;23.80;99.90
25951;DHT22;13748;52.240;6.002;2023-07-24T11:08:57;23.90;99.90
25951;DHT22;13748;52.240;6.002;2023-07-24T11:11:29;23.80;99.90
25951;DHT22;13748;52.240;6.002;2023-07-24T11:13:57;23.60;99.90
25951;DHT22;13748;52.240;6.002;2023-07-24T11:16:24;23.70;99.90
25951;DHT22;13748;52.240;6.002;2023-07-24T11:18:51;23.50;99.90
25951;DHT22;13748;52.240;6.002;2023-07-24T11:21:22;23.40;99.90
25951;DHT22;13748;52.240;6.002;2023-07-24T11:23:51;23.50;99.90
25951;DHT22;13748;52.240;6.002;2023-07-24T11:26:20;23.50;99.90
25951;DHT22;13748;52.240;6.002;2023-07-24T11:28:51;23.60;99.90
25951;DHT22;13748;52.240;6.002;2023-07-24T11:31:18;23.70;99.90
25951;DHT22;13748;52.240;6.002;2023-07-24T11:33:49;23.80;99.90
25951;DHT22;13748;52.240;6.002;2023-07-24T11:36:18;23.80;99.90
25951;DHT22;13748;52.240;6.002;2023-07-24T11:38:46;23.80;99.90
25951;DHT22;13748;52.240;6.002;2023-07-24T11:41:13;23.70;99.90
25951;DHT22;13748;52.240;6.002;2023-07-24T11:43:49;23.70;99.90
25951;DHT22;13748;52.240;6.002;2023-07-24T11:46:24;23.70;99.90
25951;DHT22;13748;52.240;6.002;2023-07-24T11:48:52;23.70;99.90
25951;DHT22;13748;52.240;6.002;2023-07-24T11:51:20;23.60;99.90
25951;DHT22;13748;52.240;6.002;2023-07-24T11:53:47;23.70;99.90
25951;DHT22;13748;52.240;6.002;2023-07-24T11:56:15;23.70;99.90
25951;DHT22;13748;52.240;6.002;2023-07-24T11:58:42;23.80;99.90
25951;DHT22;13748;52.240;6.002;2023-07-24T12:01:12;23.90;99.90
25951;DHT22;13748;52.240;6.002;2023-07-24T12:03:40;23.90;99.90
25951;DHT22;13748;52.240;6.002;2023-07-24T12:06:16;24.00;99.90
25951;DHT22;13748;52.240;6.002;2023-07-24T12:08:44;23.90;99.90
25951;DHT22;13748;52.240;6.002;2023-07-24T12:11:17;23.90;99.90
25951;DHT22;13748;52.240;6.002;2023-07-24T12:13:47;23.90;99.90
25951;DHT22;13748;52.240;6.002;2023-07-24T12:16:17;23.90;99.90
25951;DHT22;13748;52.240;6.002;2023-07-24T12:18:44;24.00;99.90
25951;DHT22;13748;52.240;6.002;2023-07-24T12:21:11;23.90;99.90
25951;DHT22;13748;52.240;6.002;2023-07-24T12:23:38;24.00;99.90
25951;DHT22;13748;52.240;6.002;2023-07-24T12:26:06;24.10;99.90
25951;DHT22;13748;52.240;6.002;2023-07-24T12:28:33;24.10;99.90
25951;DHT22;13748;52.240;6.002;2023-07-24T12:31:00;24.20;99.90
25951;DHT22;13748;52.240;6.002;2023-07-24T12:33:27;24.20;99.90
25951;DHT22;13748;52.240;6.002;2023-07-24T12:35:54;24.20;99.90
25951;DHT22;13748;52.240;6.002;2023-07-24T12:38:21;24.30;99.90
25951;DHT22;13748;52.240;6.002;2023-07-24T12:40:47;24.40;99.90
25951;DHT22;13748;52.240;6.002;2023-07-24T12:43:15;24.30;99.90
25951;DHT22;13748;52.240;6.002;2023-07-24T12:45:42;24.40;99.90
25951;DHT22;13748;52.240;6.002;2023-07-24T12:48:08;24.50;99.90
25951;DHT22;13748;52.240;6.002;2023-07-24T12:50:35;24.30;99.90
25951;DHT22;13748;52.240;6.002;2023-07-24T12:53:02;24.20;99.90
25951;DHT22;13748;52.240;6.002;2023-07-24T12:55:32;24.30;99.90
25951;DHT22;13748;52.240;6.002;2023-07-24T12:57:59;24.30;99.90
25951;DHT22;13748;52.240;6.002;2023-07-24T13:00:28;24.40;99.90
25951;DHT22;13748;52.240;6.002;2023-07-24T13:02:56;24.60;99.90
25951;DHT22;13748;52.240;6.002;2023-07-24T13:05:23;24.50;99.90
25951;DHT22;13748;52.240;6.002;2023-07-24T13:07:50;24.50;99.90
25951;DHT22;13748;52.240;6.002;2023-07-24T13:10:17;24.40;99.90
25951;DHT22;13748;52.240;6.002;2023-07-24T13:12:44;24.40;99.90
25951;DHT22;13748;52.240;6.002;2023-07-24T13:15:11;24.50;99.90
25951;DHT22;13748;52.240;6.002;2023-07-24T13:17:38;24.50;99.90
25951;DHT22;13748;52.240;6.002;2023-07-24T13:20:06;24.60;99.90
25951;DHT22;13748;52.240;6.002;2023-07-24T13:22:33;24.90;99.90
25951;DHT22;13748;52.240;6.002;2023-07-24T13:25:00;25.20;99.90
25951;DHT22;13748;52.240;6.002;2023-07-24T13:27:27;25.40;99.90
25951;DHT22;13748;52.240;6.002;2023-07-24T13:29:54;25.40;99.90
25951;DHT22;13748;52.240;6.002;2023-07-24T13:32:21;25.60;99.90
25951;DHT22;13748;52.240;6.002;2023-07-24T13:34:48;25.70;99.90
25951;DHT22;13748;52.240;6.002;2023-07-24T13:37:15;25.70;99.90
25951;DHT22;13748;52.240;6.002;2023-07-24T13:39:42;25.80;99.90
25951;DHT22;13748;52.240;6.002;2023-07-24T13:42:12;25.70;99.90
25951;DHT22;13748;52.240;6.002;2023-07-24T13:44:42;25.80;99.90
25951;DHT22;13748;52.240;6.002;2023-07-24T13:47:09;25.60;99.90
25951;DHT22;13748;52.240;6.002;2023-07-24T13:49:35;25.60;99.90
25951;DHT22;13748;52.240;6.002;2023-07-24T13:52:02;25.50;99.90
25951;DHT22;13748;52.240;6.002;2023-07-24T13:54:29;25.20;99.90
25951;DHT22;13748;52.240;6.002;2023-07-24T13:56:56;24.80;99.90
25951;DHT22;13748;52.240;6.002;2023-07-24T13:59:23;24.20;99.90
25951;DHT22;13748;52.240;6.002;2023-07-24T14:01:50;23.60;99.90
25951;DHT22;13748;52.240;6.002;2023-07-24T14:04:17;23.20;99.90
25951;DHT22;13748;52.240;6.002;2023-07-24T14:06:44;22.70;99.90
25951;DHT22;13748;52.240;6.002;2023-07-24T14:09:11;22.30;99.90
25951;DHT22;13748;52.240;6.002;2023-07-24T14:11:38;22.10;99.90
25951;DHT22;13748;52.240;6.002;2023-07-24T14:14:05;21.70;99.90
25951;DHT22;13748;52.240;6.002;2023-07-24T14:16:31;21.60;99.90
25951;DHT22;13748;52.240;6.002;2023-07-24T14:18:58;21.50;99.90
25951;DHT22;13748;52.240;6.002;2023-07-24T14:21:25;21.40;99.90
25951;DHT22;13748;52.240;6.002;2023-07-24T14:23:52;21.10;99.90
25951;DHT22;13748;52.240;6.002;2023-07-24T14:26:19;21.10;99.90
25951;DHT22;13748;52.240;6.002;2023-07-24T14:28:46;21.00;99.90
25951;DHT22;13748;52.240;6.002;2023-07-24T14:31:12;20.80;99.90
25951;DHT22;13748;52.240;6.002;2023-07-24T14:33:39;20.90;99.90
25951;DHT22;13748;52.240;6.002;2023-07-24T14:36:06;21.00;99.90
25951;DHT22;13748;52.240;6.002;2023-07-24T14:38:33;20.90;99.90
25951;DHT22;13748;52.240;6.002;2023-07-24T14:40:59;20.90;99.90
25951;DHT22;13748;52.240;6.002;2023-07-24T14:43:26;21.00;99.90
25951;DHT22;13748;52.240;6.002;2023-07-24T14:45:53;21.10;99.90
25951;DHT22;13748;52.240;6.002;2023-07-24T14:48:21;21.10;99.90
25951;DHT22;13748;52.240;6.002;2023-07-24T14:50:48;21.30;99.90
25951;DHT22;13748;52.240;6.002;2023-07-24T14:53:15;21.30;99.90
25951;DHT22;13748;52.240;6.002;2023-07-24T14:55:44;21.50;99.90
25951;DHT22;13748;52.240;6.002;2023-07-24T14:58:11;21.50;99.90
25951;DHT22;13748;52.240;6.002;2023-07-24T15:00:38;21.50;99.90
25951;DHT22;13748;52.240;6.002;2023-07-24T15:03:05;21.50;99.90
25951;DHT22;13748;52.240;6.002;2023-07-24T15:05:31;21.40;99.90
25951;DHT22;13748;52.240;6.002;2023-07-24T15:07:58;21.50;99.90
25951;DHT22;13748;52.240;6.002;2023-07-24T15:10:25;21.40;99.90
25951;DHT22;13748;52.240;6.002;2023-07-24T15:12:52;21.30;99.90
25951;DHT22;13748;52.240;6.002;2023-07-24T15:15:19;21.40;99.90
25951;DHT22;13748;52.240;6.002;2023-07-24T15:17:46;21.50;99.90
25951;DHT22;13748;52.240;6.002;2023-07-24T15:20:12;21.70;99.90
25951;DHT22;13748;52.240;6.002;2023-07-24T15:22:41;21.80;99.90
25951;DHT22;13748;52.240;6.002;2023-07-24T15:25:08;22.00;99.90
25951;DHT22;13748;52.240;6.002;2023-07-24T15:27:36;22.10;99.90
25951;DHT22;13748;52.240;6.002;2023-07-24T15:30:03;22.20;99.90
25951;DHT22;13748;52.240;6.002;2023-07-24T15:32:29;22.20;99.90
25951;DHT22;13748;52.240;6.002;2023-07-24T15:34:57;22.20;99.90
25951;DHT22;13748;52.240;6.002;2023-07-24T15:37:24;22.00;99.90
25951;DHT22;13748;52.240;6.002;2023-07-24T15:39:51;21.90;99.90